Terminal Aerodrome Forecast
Issued by NWS Sterling, VA

Home | Current Version | Previous Version | Text Only | Print | Product List | Glossary On
Versions: 1 2 3 4 5 6 7 8 9 10 11 12 13 14 15 16 17 18 19 20
000
FTUS41 KLWX 011722
TAFCHO
TAF
KCHO 011722Z 0118/0218 20007KT P6SM BKN008
     FM012100 20007KT P6SM BKN015
     FM020000 18004KT P6SM -SHRA VCTS BKN020CB
     FM020300 16004KT 3SM BR BKN003
     FM021000 22004KT 1/2SM FG BKN003
     FM021300 23006KT 1SM BR SCT003
     FM021500 22007KT P6SM SCT020
     FM021700 23008KT P6SM SCT250=

USA.gov is the U.S. government's official web portal to all federal, state and local government web resources and services.